Time;durP1;ratioP1;P1;durP2;ratioP2;P2;SDS_P1;SDS_P2;PMS_P1;PMS_P2;Temp;Humidity;BMP_temperature;BMP_pressure;BME280_temperature;BME280_humidity;BME280_pressure;Samples;Min_cycle;Max_cycle;Signal;HPM_P1;HPM_P2
2022/03/02 07:02:40;;;;;;;13.60;4.18;;;;;;;;;;4876118;29;20247;-81
2022/03/02 07:05:09;;;;;;;15.07;4.00;;;;;;;;;;4878011;29;20045;-82
2022/03/02 07:07:36;;;;;;;;;;;;;;;;;;4879370;29;20116;-83
2022/03/02 07:10:04;;;;;;;27.65;5.30;;;;;;;;;;4890343;29;19924;-80
2022/03/02 07:12:31;;;;;;;16.48;4.65;;;;;;;;;;4879174;29;20041;-83
2022/03/02 07:14:57;;;;;;;17.17;6.43;;;;;;;;;;4875047;29;20116;-83
2022/03/02 07:17:26;;;;;;;16.13;6.38;;;;;;;;;;4878368;29;20085;-84
2022/03/02 07:19:53;;;;;;;16.48;7.20;;;;;;;;;;4878568;29;20395;-83
2022/03/02 07:22:23;;;;;;;28.60;7.45;;;;;;;;;;4878058;29;20049;-82
2022/03/02 07:24:58;;;;;;;21.35;6.50;;;;;;;;;;4878511;29;20545;-82
2022/03/02 07:27:30;;;;;;;29.70;6.57;;;;;;;;;;4877814;29;20053;-81
2022/03/02 07:29:57;;;;;;;61.05;6.90;;;;;;;;;;4878177;29;20137;-82
2022/03/02 07:32:27;;;;;;;93.95;8.25;;;;;;;;;;4877904;29;20072;-83
2022/03/02 07:34:56;;;;;;;77.00;7.57;;;;;;;;;;4878095;29;20057;-82
2022/03/02 07:37:24;;;;;;;35.35;5.65;;;;;;;;;;4878048;29;20101;-82
2022/03/02 07:39:50;;;;;;;18.67;5.57;;;;;;;;;;4878299;29;20060;-80
2022/03/02 07:42:17;;;;;;;25.33;5.90;;;;;;;;;;4877453;29;20049;-82
2022/03/02 07:44:44;;;;;;;18.45;4.75;;;;;;;;;;4878236;29;20113;-82
2022/03/02 07:47:11;;;;;;;18.48;5.57;;;;;;;;;;4877336;29;20089;-82
2022/03/02 07:49:39;;;;;;;19.70;6.30;;;;;;;;;;4859070;29;20052;-81
2022/03/02 07:52:06;;;;;;;38.78;5.95;;;;;;;;;;4877132;29;20625;-80
2022/03/02 07:54:37;;;;;;;20.83;5.10;;;;;;;;;;4878802;29;20056;-81
2022/03/02 07:57:06;;;;;;;10.70;4.47;;;;;;;;;;4877694;29;20057;-80
2022/03/02 07:59:43;;;;;;;16.65;3.97;;;;;;;;;;4877401;29;20101;-80
2022/03/02 08:02:11;;;;;;;11.27;3.58;;;;;;;;;;4876502;29;20041;-80
2022/03/02 08:04:41;;;;;;;33.60;4.88;;;;;;;;;;4877950;29;20484;-80
2022/03/02 08:07:10;;;;;;;55.13;6.35;;;;;;;;;;4877438;29;20048;-80
2022/03/02 08:09:38;;;;;;;76.80;6.53;;;;;;;;;;4886387;29;20100;-80
2022/03/02 08:12:07;;;;;;;66.07;6.00;;;;;;;;;;4876856;29;20475;-80
2022/03/02 08:14:34;;;;;;;94.18;6.30;;;;;;;;;;4874022;29;20099;-81
2022/03/02 08:17:02;;;;;;;53.10;5.35;;;;;;;;;;4877171;29;20093;-81
2022/03/02 08:19:30;;;;;;;64.87;5.60;;;;;;;;;;4877445;29;20045;-80
2022/03/02 08:22:12;;;;;;;35.08;4.18;;;;;;;;;;4877097;29;20281;-81
2022/03/02 08:24:42;;;;;;;27.90;4.47;;;;;;;;;;4874189;29;20506;-80
2022/03/02 08:27:14;;;;;;;31.15;4.20;;;;;;;;;;4877011;29;20061;-80
2022/03/02 08:29:44;;;;;;;14.85;3.83;;;;;;;;;;4877052;29;20514;-80
2022/03/02 08:32:14;;;;;;;28.95;4.72;;;;;;;;;;4876622;29;20570;-81
2022/03/02 08:34:43;;;;;;;27.85;4.28;;;;;;;;;;4877173;29;20510;-80
2022/03/02 08:37:10;;;;;;;22.60;4.18;;;;;;;;;;4862051;29;20045;-80
2022/03/02 08:39:38;;;;;;;17.63;4.07;;;;;;;;;;4874000;29;20045;-80
2022/03/02 08:42:05;;;;;;;11.07;2.45;;;;;;;;;;4876456;29;20065;-81
2022/03/02 08:44:32;;;;;;;14.05;3.03;;;;;;;;;;4876885;29;20077;-81
2022/03/02 08:46:59;;;;;;;16.83;3.78;;;;;;;;;;4871973;29;20100;-81
2022/03/02 08:49:25;;;;;;;21.35;2.95;;;;;;;;;;4876255;29;20056;-81
2022/03/02 08:51:56;;;;;;;17.88;2.83;;;;;;;;;;4876529;29;20443;-81
2022/03/02 08:54:23;;;;;;;18.67;2.67;;;;;;;;;;4867144;29;20121;-82
2022/03/02 08:56:52;;;;;;;17.48;2.97;;;;;;;;;;4872460;29;20522;-82
2022/03/02 08:59:20;;;;;;;15.10;3.38;;;;;;;;;;4871342;29;20076;-81
2022/03/02 09:01:52;;;;;;;18.27;3.47;;;;;;;;;;4871674;29;20735;-82
2022/03/02 09:04:21;;;;;;;12.35;2.88;;;;;;;;;;4871826;29;20112;-82
2022/03/02 09:07:12;;;;;;;13.73;2.40;;;;;;;;;;4871779;29;20112;-81
2022/03/02 09:09:39;;;;;;;10.15;2.58;;;;;;;;;;4872918;29;20065;-81
2022/03/02 09:12:08;;;;;;;10.13;2.47;;;;;;;;;;4871672;29;20053;-82
2022/03/02 09:14:37;;;;;;;12.23;2.40;;;;;;;;;;4872212;29;20056;-82
2022/03/02 09:17:05;;;;;;;7.25;2.25;;;;;;;;;;4871683;29;20554;-82
2022/03/02 09:19:32;;;;;;;6.72;2.45;;;;;;;;;;4867463;29;20085;-82
2022/03/02 09:21:59;;;;;;;8.52;2.38;;;;;;;;;;4868947;29;20064;-81
2022/03/02 09:24:29;;;;;;;6.35;2.28;;;;;;;;;;4872311;29;20108;-82
2022/03/02 09:27:00;;;;;;;6.45;2.50;;;;;;;;;;4870927;29;20053;-81
2022/03/02 09:29:31;;;;;;;6.25;2.33;;;;;;;;;;4866488;29;20056;-82
2022/03/02 09:32:02;;;;;;;6.15;2.35;;;;;;;;;;4872020;29;20061;-82
2022/03/02 09:34:30;;;;;;;9.32;2.58;;;;;;;;;;4869056;29;20053;-81
2022/03/02 09:36:59;;;;;;;9.13;2.57;;;;;;;;;;4872010;29;20104;-81
2022/03/02 09:39:26;;;;;;;5.03;2.10;;;;;;;;;;4871549;29;20048;-81
2022/03/02 09:42:11;;;;;;;5.45;1.80;;;;;;;;;;4871706;29;20057;-81
2022/03/02 09:44:47;;;;;;;5.47;1.95;;;;;;;;;;4871086;29;20152;-81
2022/03/02 09:47:20;;;;;;;3.88;1.45;;;;;;;;;;4871002;29;20037;-81
2022/03/02 09:49:57;;;;;;;4.13;1.40;;;;;;;;;;4869761;29;20096;-81
2022/03/02 09:52:24;;;;;;;4.95;1.50;;;;;;;;;;4856408;29;20076;-81
2022/03/02 09:54:56;;;;;;;5.28;1.58;;;;;;;;;;4871296;29;20059;-81
2022/03/02 09:57:24;;;;;;;3.47;1.90;;;;;;;;;;4871662;29;20049;-80
2022/03/02 09:59:57;;;;;;;5.57;1.90;;;;;;;;;;4869447;29;20053;-80
2022/03/02 10:02:37;;;;;;;5.38;1.70;;;;;;;;;;4860298;29;21821;-82
2022/03/02 10:05:08;;;;;;;6.40;1.83;;;;;;;;;;4866963;29;20049;-81
2022/03/02 10:07:40;;;;;;;6.90;2.30;;;;;;;;;;4871501;29;20136;-81
2022/03/02 10:10:08;;;;;;;7.30;2.13;;;;;;;;;;4876577;29;20470;-82
2022/03/02 10:12:35;;;;;;;7.80;2.22;;;;;;;;;;4875412;29;20052;-82
2022/03/02 10:15:06;;;;;;;7.30;2.50;;;;;;;;;;4875253;29;20408;-82
2022/03/02 10:17:35;;;;;;;6.25;2.30;;;;;;;;;;4861100;29;20049;-82
2022/03/02 10:20:06;;;;;;;5.28;2.20;;;;;;;;;;4872917;29;21005;-81
2022/03/02 10:22:39;;;;;;;5.28;2.10;;;;;;;;;;4874412;29;20041;-82
2022/03/02 10:25:12;;;;;;;6.05;2.38;;;;;;;;;;4873304;29;20081;-80
2022/03/02 10:28:06;;;;;;;5.63;2.03;;;;;;;;;;4875072;29;20149;-82
2022/03/02 10:30:38;;;;;;;4.38;2.13;;;;;;;;;;4874550;29;20057;-81
2022/03/02 10:33:18;;;;;;;5.90;1.70;;;;;;;;;;4873835;29;20646;-81
2022/03/02 10:35:59;;;;;;;6.25;2.35;;;;;;;;;;4874188;29;20057;-82
2022/03/02 10:38:59;;;;;;;7.15;1.90;;;;;;;;;;4873423;29;20097;-81
2022/03/02 10:41:28;;;;;;;5.40;1.52;;;;;;;;;;4873609;29;20452;-82
2022/03/02 10:44:37;;;;;;;6.18;1.67;;;;;;;;;;4874465;29;20049;-83
2022/03/02 10:47:07;;;;;;;4.35;1.40;;;;;;;;;;4874106;29;20092;-83
2022/03/02 10:49:34;;;;;;;5.28;1.15;;;;;;;;;;4874054;29;20510;-82
2022/03/02 10:52:04;;;;;;;4.25;1.30;;;;;;;;;;4874387;29;20061;-83
2022/03/02 10:54:32;;;;;;;6.13;1.30;;;;;;;;;;4874881;29;20109;-83
2022/03/02 10:57:02;;;;;;;3.78;1.10;;;;;;;;;;4873542;29;20056;-83
2022/03/02 10:59:31;;;;;;;3.03;1.00;;;;;;;;;;4868205;29;20459;-82
2022/03/02 11:01:59;;;;;;;4.57;2.00;;;;;;;;;;4861083;29;20089;-83
2022/03/02 11:04:28;;;;;;;;;;;;;;;;;;4873910;29;20104;-82
2022/03/02 11:06:56;;;;;;;8.45;4.78;;;;;;;;;;4874387;29;19994;-81
2022/03/02 11:09:48;;;;;;;11.50;6.90;;;;;;;;;;4879725;29;20551;-82
2022/03/02 11:12:20;;;;;;;27.67;17.33;;;;;;;;;;4873961;29;20547;-80
2022/03/02 11:14:58;;;;;;;4.32;1.38;;;;;;;;;;4872631;29;20402;-80
2022/03/02 11:17:26;;;;;;;3.40;0.98;;;;;;;;;;4869801;29;20048;-80
2022/03/02 11:19:54;;;;;;;3.63;1.00;;;;;;;;;;4874492;29;20049;-81
2022/03/02 11:22:22;;;;;;;2.53;0.50;;;;;;;;;;4872495;29;20060;-81
2022/03/02 11:24:55;;;;;;;3.80;0.70;;;;;;;;;;4874505;29;20123;-80
2022/03/02 11:27:28;;;;;;;4.63;0.63;;;;;;;;;;4867913;29;20049;-82
2022/03/02 11:30:12;;;;;;;7.47;0.90;;;;;;;;;;4864826;29;20132;-81
2022/03/02 11:32:42;;;;;;;3.22;0.52;;;;;;;;;;4870858;29;20048;-83
2022/03/02 11:35:18;;;;;;;6.82;1.27;;;;;;;;;;4874109;29;20053;-80
2022/03/02 11:37:55;;;;;;;7.13;0.93;;;;;;;;;;4873941;29;20049;-81
2022/03/02 11:40:42;;;;;;;6.63;1.27;;;;;;;;;;4874158;29;20479;-81
2022/03/02 11:43:14;;;;;;;5.40;1.08;;;;;;;;;;4873557;29;20096;-81
2022/03/02 11:46:07;;;;;;;3.80;0.90;;;;;;;;;;4873302;29;20131;-82
2022/03/02 11:48:38;;;;;;;1.88;0.75;;;;;;;;;;4872455;29;20097;-81
2022/03/02 11:51:12;;;;;;;5.80;0.80;;;;;;;;;;4872605;29;20073;-80
2022/03/02 11:53:47;;;;;;;4.03;1.10;;;;;;;;;;4872972;29;20108;-82
2022/03/02 11:56:18;;;;;;;2.50;0.52;;;;;;;;;;4855839;29;20049;-81
2022/03/02 11:59:11;;;;;;;3.55;0.50;;;;;;;;;;4874076;29;20545;-81
2022/03/02 12:01:43;;;;;;;4.78;0.90;;;;;;;;;;4873412;29;20053;-80
2022/03/02 12:04:26;;;;;;;6.38;0.70;;;;;;;;;;4872453;29;20052;-81
2022/03/02 12:06:55;;;;;;;2.58;0.50;;;;;;;;;;4873555;29;20411;-81
2022/03/02 12:09:38;;;;;;;5.30;0.70;;;;;;;;;;4875733;29;20057;-80
2022/03/02 12:12:06;;;;;;;4.47;0.70;;;;;;;;;;4872782;29;20087;-81
2022/03/02 12:14:53;;;;;;;2.92;0.60;;;;;;;;;;4872062;29;20479;-81
2022/03/02 12:17:27;;;;;;;2.97;0.60;;;;;;;;;;4873203;29;20565;-80
2022/03/02 12:19:57;;;;;;;4.00;0.50;;;;;;;;;;4874033;29;20064;-82
2022/03/02 12:22:35;;;;;;;2.72;1.00;;;;;;;;;;4866892;29;20095;-81
2022/03/02 12:25:04;;;;;;;4.05;0.75;;;;;;;;;;4872363;29;20052;-82
2022/03/02 12:27:30;;;;;;;5.65;0.90;;;;;;;;;;4867320;29;20787;-82
2022/03/02 12:30:00;;;;;;;6.28;0.73;;;;;;;;;;4872855;29;20052;-82
2022/03/02 12:32:30;;;;;;;6.85;1.10;;;;;;;;;;4871896;29;20049;-81
2022/03/02 12:34:59;;;;;;;8.02;2.75;;;;;;;;;;4871385;29;20578;-82
2022/03/02 12:37:27;;;;;;;3.55;0.80;;;;;;;;;;4871945;29;20093;-82
2022/03/02 12:39:54;;;;;;;4.70;1.00;;;;;;;;;;4854889;29;20103;-82
2022/03/02 12:42:21;;;;;;;7.25;1.30;;;;;;;;;;4871688;29;20108;-83
2022/03/02 12:44:55;;;;;;;3.88;1.10;;;;;;;;;;4872389;29;20160;-83
2022/03/02 12:47:24;;;;;;;2.72;1.15;;;;;;;;;;4871359;29;20045;-82
2022/03/02 12:49:53;;;;;;;4.72;1.42;;;;;;;;;;4871212;29;20110;-78
2022/03/02 12:52:21;;;;;;;;;;;;;;;;;;4871752;29;20045;-81
2022/03/02 12:54:48;;;;;;;5.40;1.33;;;;;;;;;;4859061;29;19924;-82
2022/03/02 12:57:17;;;;;;;7.22;3.55;;;;;;;;;;4871712;29;20113;-82
2022/03/02 12:59:44;;;;;;;6.28;2.67;;;;;;;;;;4872247;29;20140;-82
2022/03/02 13:02:15;;;;;;;6.00;2.38;;;;;;;;;;4871769;29;20070;-83
2022/03/02 13:04:49;;;;;;;6.47;2.42;;;;;;;;;;4872577;29;20415;-83
2022/03/02 13:07:24;;;;;;;7.45;1.90;;;;;;;;;;4872054;29;20140;-82
2022/03/02 13:09:52;;;;;;;6.10;2.92;;;;;;;;;;4874434;29;20057;-82
2022/03/02 13:12:31;;;;;;;4.75;1.38;;;;;;;;;;4868077;29;20483;-82
2022/03/02 13:15:00;;;;;;;6.88;1.33;;;;;;;;;;4866344;29;20045;-82
2022/03/02 13:17:27;;;;;;;2.97;1.30;;;;;;;;;;4873018;29;20519;-81
2022/03/02 13:19:58;;;;;;;5.03;1.23;;;;;;;;;;4876795;29;20104;-82
2022/03/02 13:22:34;;;;;;;3.97;1.10;;;;;;;;;;4874845;29;20052;-82
2022/03/02 13:25:06;;;;;;;4.85;1.20;;;;;;;;;;4870874;29;20044;-81
2022/03/02 13:27:36;;;;;;;9.57;0.82;;;;;;;;;;4872116;29;20041;-78
2022/03/02 13:30:10;;;;;;;8.65;4.55;;;;;;;;;;4871630;29;20049;-81
2022/03/02 13:32:52;;;;;;;3.33;0.90;;;;;;;;;;4871889;29;20049;-82
2022/03/02 13:35:54;;;;;;;2.15;0.80;;;;;;;;;;4870890;29;20433;-79
2022/03/02 13:38:20;;;;;;;5.05;1.00;;;;;;;;;;4868056;29;20140;-80
2022/03/02 13:40:50;;;;;;;3.80;0.60;;;;;;;;;;4871309;29;20060;-80
2022/03/02 13:43:17;;;;;;;4.07;0.85;;;;;;;;;;4871154;29;20577;-80
2022/03/02 13:46:07;;;;;;;2.50;0.57;;;;;;;;;;4871207;29;20053;-80
2022/03/02 13:48:34;;;;;;;3.00;0.68;;;;;;;;;;4872223;29;20076;-78
2022/03/02 13:51:02;;;;;;;2.95;0.60;;;;;;;;;;4871730;29;20582;-79
2022/03/02 13:53:33;;;;;;;5.38;0.70;;;;;;;;;;4867305;29;20529;-78
2022/03/02 13:56:04;;;;;;;3.58;0.50;;;;;;;;;;4871363;29;20053;-79
2022/03/02 13:58:32;;;;;;;4.60;0.90;;;;;;;;;;4864716;29;20114;-79
2022/03/02 14:01:18;;;;;;;2.97;0.52;;;;;;;;;;4869966;29;20057;-79
2022/03/02 14:03:57;;;;;;;2.65;0.50;;;;;;;;;;4868221;29;20503;-80
2022/03/02 14:06:24;;;;;;;3.50;0.57;;;;;;;;;;4871450;29;20061;-81
2022/03/02 14:08:53;;;;;;;2.95;0.50;;;;;;;;;;4872822;29;20103;-82
2022/03/02 14:11:41;;;;;;;2.55;0.40;;;;;;;;;;4870244;29;20068;-82
2022/03/02 14:14:22;;;;;;;2.38;0.50;;;;;;;;;;4864408;29;20097;-82
2022/03/02 14:17:10;;;;;;;3.78;0.65;;;;;;;;;;4870840;29;20052;-82
2022/03/02 14:19:40;;;;;;;2.20;0.40;;;;;;;;;;4871451;29;20108;-81
2022/03/02 14:22:11;;;;;;;1.65;0.40;;;;;;;;;;4870985;29;20094;-82
2022/03/02 14:24:40;;;;;;;1.13;0.40;;;;;;;;;;4871522;29;20510;-82
2022/03/02 14:27:10;;;;;;;2.17;0.40;;;;;;;;;;4868773;29;20053;-82
2022/03/02 14:29:39;;;;;;;1.13;0.50;;;;;;;;;;4871477;29;20049;-83
2022/03/02 14:32:10;;;;;;;3.15;0.50;;;;;;;;;;4870378;29;20078;-83
2022/03/02 14:35:07;;;;;;;2.00;0.40;;;;;;;;;;4871604;29;20100;-85
2022/03/02 14:37:43;;;;;;;1.90;0.50;;;;;;;;;;4869724;29;20072;-83
2022/03/02 14:40:19;;;;;;;1.77;0.45;;;;;;;;;;4869277;29;20049;-83
2022/03/02 14:42:51;;;;;;;5.50;0.60;;;;;;;;;;4871454;29;20109;-82
2022/03/02 14:45:19;;;;;;;2.80;0.60;;;;;;;;;;4871222;29;20074;-83
2022/03/02 14:47:59;;;;;;;1.70;0.50;;;;;;;;;;4866669;29;20054;-82
2022/03/02 14:50:28;;;;;;;2.42;0.50;;;;;;;;;;4869135;29;20112;-83
2022/03/02 14:53:00;;;;;;;5.05;0.52;;;;;;;;;;4876311;29;20053;-81
2022/03/02 14:55:43;;;;;;;2.15;0.50;;;;;;;;;;4867121;29;20049;-82
2022/03/02 14:58:44;;;;;;;5.10;0.90;;;;;;;;;;4872381;29;20084;-84
2022/03/02 15:01:14;;;;;;;3.67;1.20;;;;;;;;;;4869763;29;20078;-82
2022/03/02 15:03:42;;;;;;;3.97;1.23;;;;;;;;;;4869485;29;20153;-83
2022/03/02 15:06:14;;;;;;;7.13;1.53;;;;;;;;;;4867493;29;20117;-82
2022/03/02 15:08:42;;;;;;;4.70;1.50;;;;;;;;;;4871183;29;20410;-82
2022/03/02 15:11:33;;;;;;;4.57;1.60;;;;;;;;;;4867898;29;20049;-81
2022/03/02 15:17:09;;;;;;;;;;;;;;;;;;4871991;29;20045;-83
2022/03/02 15:19:41;;;;;;;6.80;1.85;;;;;;;;;;4867263;29;19934;-80
2022/03/02 15:22:12;;;;;;;2.08;1.10;;;;;;;;;;4876414;29;20060;-82
2022/03/02 15:24:42;;;;;;;5.28;1.40;;;;;;;;;;4873483;29;20056;-83
2022/03/02 15:27:15;;;;;;;3.38;1.10;;;;;;;;;;4877206;29;20052;-82
2022/03/02 15:29:43;;;;;;;3.38;1.20;;;;;;;;;;4861837;29;20060;-84
2022/03/02 15:32:13;;;;;;;2.25;1.13;;;;;;;;;;4877614;29;20055;-80
2022/03/02 15:34:59;;;;;;;3.92;1.30;;;;;;;;;;4878305;29;20056;-82
2022/03/02 15:37:32;;;;;;;4.53;1.17;;;;;;;;;;4877759;29;20131;-83
2022/03/02 15:40:05;;;;;;;8.43;3.22;;;;;;;;;;4881562;29;20089;-81
2022/03/02 15:42:40;;;;;;;7.07;1.80;;;;;;;;;;4880603;29;20056;-82
2022/03/02 15:45:23;;;;;;;8.02;1.50;;;;;;;;;;4877111;29;20078;-83
2022/03/02 15:47:52;;;;;;;6.38;1.77;;;;;;;;;;4872820;29;20057;-83
2022/03/02 15:50:39;;;;;;;5.28;1.70;;;;;;;;;;4865401;29;20071;-81
2022/03/02 15:53:06;;;;;;;3.97;1.27;;;;;;;;;;4872904;29;20111;-80
2022/03/02 15:56:01;;;;;;;4.32;1.08;;;;;;;;;;4873720;29;20120;-81
2022/03/02 15:58:30;;;;;;;5.55;1.60;;;;;;;;;;4871259;29;20475;-79
2022/03/02 16:00:57;;;;;;;3.75;1.17;;;;;;;;;;4866994;29;20045;-81
2022/03/02 16:03:27;;;;;;;7.65;1.50;;;;;;;;;;4871112;29;20416;-81
2022/03/02 16:05:57;;;;;;;4.88;1.50;;;;;;;;;;4871976;29;20060;-82
2022/03/02 16:08:32;;;;;;;4.20;1.30;;;;;;;;;;4872196;29;21946;-81
2022/03/02 16:11:31;;;;;;;10.23;1.65;;;;;;;;;;4867574;29;20064;-81
2022/03/02 16:14:09;;;;;;;10.05;1.98;;;;;;;;;;4865887;29;20045;-82
2022/03/02 16:16:42;;;;;;;7.65;1.70;;;;;;;;;;4866139;29;20056;-80
2022/03/02 16:19:13;;;;;;;9.88;1.83;;;;;;;;;;4868249;29;20088;-82
2022/03/02 16:21:44;;;;;;;7.43;1.88;;;;;;;;;;4866782;29;20438;-81
2022/03/02 16:24:33;;;;;;;6.00;1.95;;;;;;;;;;4869136;29;20092;-81
2022/03/02 16:27:18;;;;;;;12.05;2.88;;;;;;;;;;4876014;29;20056;-81
2022/03/02 16:29:47;;;;;;;8.10;2.10;;;;;;;;;;4862671;29;20053;-79
2022/03/02 16:32:14;;;;;;;9.40;2.58;;;;;;;;;;4873348;29;20045;-80
2022/03/02 16:34:42;;;;;;;7.22;3.03;;;;;;;;;;4871071;29;20048;-80
2022/03/02 16:37:14;;;;;;;5.22;2.40;;;;;;;;;;4855582;29;20052;-81
2022/03/02 16:39:41;;;;;;;5.45;2.15;;;;;;;;;;4865969;29;20049;-81
2022/03/02 16:42:09;;;;;;;5.40;2.33;;;;;;;;;;4875146;29;20045;-82
2022/03/02 16:44:36;;;;;;;4.97;2.70;;;;;;;;;;4874892;29;20037;-82
2022/03/02 16:47:04;;;;;;;7.47;2.88;;;;;;;;;;4873152;29;20137;-83
2022/03/02 16:49:32;;;;;;;13.48;3.30;;;;;;;;;;4872273;29;20077;-81
2022/03/02 16:51:59;;;;;;;9.63;3.45;;;;;;;;;;4875376;29;20105;-82
2022/03/02 16:54:26;;;;;;;14.07;3.80;;;;;;;;;;4873216;29;20443;-84
2022/03/02 16:56:53;;;;;;;12.25;4.05;;;;;;;;;;4871388;29;20053;-83
2022/03/02 16:59:20;;;;;;;10.52;3.60;;;;;;;;;;4868518;29;20044;-83
2022/03/02 17:01:46;;;;;;;13.70;4.80;;;;;;;;;;4855372;29;20550;-84
2022/03/02 17:04:13;;;;;;;11.45;4.78;;;;;;;;;;4866228;29;20049;-84
2022/03/02 17:06:46;;;;;;;12.98;4.57;;;;;;;;;;4865193;29;20065;-82
2022/03/02 17:09:17;;;;;;;14.93;4.40;;;;;;;;;;4873209;29;20045;-83
2022/03/02 17:11:45;;;;;;;15.32;4.40;;;;;;;;;;4869609;29;20064;-82
2022/03/02 17:14:13;;;;;;;9.55;4.05;;;;;;;;;;4871343;29;20468;-82
2022/03/02 17:16:40;;;;;;;11.35;3.40;;;;;;;;;;4868060;29;20170;-83
2022/03/02 17:19:13;;;;;;;15.70;3.40;;;;;;;;;;4867460;29;20162;-83
2022/03/02 17:21:40;;;;;;;13.23;3.83;;;;;;;;;;4871344;29;20097;-83
2022/03/02 17:24:06;;;;;;;16.75;5.40;;;;;;;;;;4867470;29;20076;-83
2022/03/02 17:26:33;;;;;;;8.30;2.85;;;;;;;;;;4866256;29;20097;-83
2022/03/02 17:29:02;;;;;;;9.65;2.55;;;;;;;;;;4866380;29;20053;-84
2022/03/02 17:31:29;;;;;;;12.18;3.30;;;;;;;;;;4868159;29;20045;-84
2022/03/02 17:33:57;;;;;;;7.50;3.50;;;;;;;;;;4868315;29;20053;-87
2022/03/02 17:36:29;;;;;;;14.50;2.38;;;;;;;;;;4871002;29;20045;-84
2022/03/02 17:38:58;;;;;;;6.57;1.83;;;;;;;;;;4871416;29;20482;-86
2022/03/02 17:41:26;;;;;;;11.00;2.45;;;;;;;;;;4851490;29;20116;-85
2022/03/02 17:43:55;;;;;;;5.93;2.33;;;;;;;;;;4867321;29;20056;-84
2022/03/02 17:46:22;;;;;;;4.97;1.63;;;;;;;;;;4865476;29;20795;-84
2022/03/02 17:48:53;;;;;;;7.65;2.80;;;;;;;;;;4872712;29;20419;-85
2022/03/02 17:51:19;;;;;;;6.60;3.88;;;;;;;;;;4867173;29;20084;-85
2022/03/02 17:53:46;;;;;;;9.30;5.32;;;;;;;;;;4867609;29;20052;-85
2022/03/02 17:56:13;;;;;;;53.25;28.00;;;;;;;;;;4863462;29;20392;-85
2022/03/02 17:58:40;;;;;;;38.92;27.70;;;;;;;;;;4869024;29;20065;-86
2022/03/02 18:01:07;;;;;;;13.25;6.95;;;;;;;;;;4870488;29;20049;-84
2022/03/02 18:03:34;;;;;;;5.15;3.53;;;;;;;;;;4869119;29;20096;-84
2022/03/02 18:06:01;;;;;;;13.85;6.07;;;;;;;;;;4869537;29;20059;-85
2022/03/02 18:08:27;;;;;;;8.82;3.97;;;;;;;;;;4854310;29;20072;-84
2022/03/02 18:10:54;;;;;;;6.05;2.67;;;;;;;;;;4867508;29;20053;-85
2022/03/02 18:13:21;;;;;;;6.30;2.30;;;;;;;;;;4870043;29;20101;-87
2022/03/02 18:15:48;;;;;;;8.15;2.88;;;;;;;;;;4870687;29;20488;-86
2022/03/02 18:18:15;;;;;;;6.38;3.92;;;;;;;;;;4852507;29;20064;-86
2022/03/02 18:20:44;;;;;;;8.45;4.20;;;;;;;;;;4851197;29;20057;-85
2022/03/02 18:23:11;;;;;;;8.48;5.53;;;;;;;;;;4866541;29;20045;-85
2022/03/02 18:25:39;;;;;;;8.60;4.50;;;;;;;;;;4875702;29;20065;-84
2022/03/02 18:28:07;;;;;;;10.98;4.72;;;;;;;;;;4863985;29;20080;-85
2022/03/02 18:30:34;;;;;;;7.70;4.10;;;;;;;;;;4862464;29;20084;-84
2022/03/02 18:33:01;;;;;;;9.70;4.47;;;;;;;;;;4872604;29;20582;-86
2022/03/02 18:35:28;;;;;;;11.45;4.40;;;;;;;;;;4859912;29;20498;-84
2022/03/02 18:37:57;;;;;;;13.43;4.93;;;;;;;;;;4877413;29;20068;-84
2022/03/02 18:40:24;;;;;;;;;;;;;;;;;;4873124;29;20559;-85
2022/03/02 18:42:51;;;;;;;8.15;3.85;;;;;;;;;;4880668;29;19927;-84
2022/03/02 18:45:18;;;;;;;7.25;4.55;;;;;;;;;;4873118;29;20139;-84
2022/03/02 18:47:44;;;;;;;7.38;5.53;;;;;;;;;;4856677;29;20126;-83
2022/03/02 18:50:14;;;;;;;10.55;4.55;;;;;;;;;;4874306;29;20470;-83
2022/03/02 18:52:41;;;;;;;9.38;5.30;;;;;;;;;;4872886;29;20349;-83
2022/03/02 18:55:08;;;;;;;12.48;5.00;;;;;;;;;;4875690;29;20068;-84
2022/03/02 18:57:35;;;;;;;11.80;5.47;;;;;;;;;;4861590;29;20115;-83
2022/03/02 19:00:04;;;;;;;6.88;4.50;;;;;;;;;;4873043;29;20466;-83
2022/03/02 19:02:32;;;;;;;9.15;4.72;;;;;;;;;;4873465;29;20048;-82
2022/03/02 19:04:59;;;;;;;12.57;6.43;;;;;;;;;;4874325;29;20052;-82
2022/03/02 19:07:27;;;;;;;11.95;7.07;;;;;;;;;;4858295;29;20055;-81
2022/03/02 19:09:54;;;;;;;19.85;12.57;;;;;;;;;;4878748;29;20056;-83
2022/03/02 19:12:21;;;;;;;9.02;7.10;;;;;;;;;;4879949;29;20052;-83
2022/03/02 19:14:47;;;;;;;12.95;9.00;;;;;;;;;;4877782;29;20053;-83
2022/03/02 19:17:14;;;;;;;13.60;7.13;;;;;;;;;;4880492;29;20109;-83
2022/03/02 19:19:40;;;;;;;12.85;7.55;;;;;;;;;;4859738;29;20125;-83
2022/03/02 19:22:08;;;;;;;14.25;11.10;;;;;;;;;;4878130;29;20052;-84
2022/03/02 19:24:38;;;;;;;15.52;9.80;;;;;;;;;;4874183;29;20069;-84
2022/03/02 19:27:05;;;;;;;18.42;14.40;;;;;;;;;;4872191;29;20140;-85
2022/03/02 19:29:32;;;;;;;31.58;26.23;;;;;;;;;;4872486;29;20057;-85
2022/03/02 19:31:59;;;;;;;21.48;18.85;;;;;;;;;;4872525;29;20060;-85
2022/03/02 19:34:26;;;;;;;22.38;18.77;;;;;;;;;;4873020;29;20513;-85
2022/03/02 19:36:52;;;;;;;15.18;13.60;;;;;;;;;;4877287;29;21697;-84
2022/03/02 19:42:05;;;;;;;18.15;10.90;;;;;;;;;;4872537;29;20073;-85
2022/03/02 19:44:32;;;;;;;15.90;12.13;;;;;;;;;;4871695;29;20061;-83
2022/03/02 19:47:00;;;;;;;16.58;11.40;;;;;;;;;;4873900;29;20049;-83
2022/03/02 19:49:29;;;;;;;19.45;11.95;;;;;;;;;;4854978;29;20049;-85
2022/03/02 19:52:00;;;;;;;16.65;10.43;;;;;;;;;;4872398;29;20053;-83
2022/03/02 19:54:31;;;;;;;16.08;9.13;;;;;;;;;;4855272;29;20100;-84
2022/03/02 19:57:03;;;;;;;16.02;8.57;;;;;;;;;;4872348;29;20064;-84
2022/03/02 19:59:31;;;;;;;18.42;10.70;;;;;;;;;;4871952;29;20071;-84
2022/03/02 20:02:01;;;;;;;15.90;11.17;;;;;;;;;;4858807;29;20048;-84
2022/03/02 20:04:31;;;;;;;17.27;11.18;;;;;;;;;;4872027;29;20047;-82
2022/03/02 20:06:59;;;;;;;19.70;10.70;;;;;;;;;;4872408;29;20045;-83
2022/03/02 20:09:29;;;;;;;15.40;10.55;;;;;;;;;;4861451;29;20057;-84
2022/03/02 20:11:56;;;;;;;17.83;8.57;;;;;;;;;;4871980;29;20053;-84
2022/03/02 20:14:23;;;;;;;17.15;10.27;;;;;;;;;;4870758;29;20060;-82
2022/03/02 20:16:50;;;;;;;14.35;9.23;;;;;;;;;;4871943;29;20045;-82
2022/03/02 20:19:24;;;;;;;15.63;8.70;;;;;;;;;;4871806;29;20839;-82
2022/03/02 20:21:50;;;;;;;14.60;8.85;;;;;;;;;;4871767;29;20077;-83
2022/03/02 20:24:17;;;;;;;12.23;7.72;;;;;;;;;;4872475;29;20053;-82
2022/03/02 20:26:44;;;;;;;12.95;6.95;;;;;;;;;;4871852;29;20076;-83
2022/03/02 20:29:11;;;;;;;8.88;6.63;;;;;;;;;;4858717;29;20084;-81
2022/03/02 20:31:40;;;;;;;;;;;;;;;;;;4871471;29;20489;-82
2022/03/02 20:34:06;;;;;;;12.38;6.40;;;;;;;;;;4870788;29;20384;-84
2022/03/02 20:36:33;;;;;;;11.85;5.63;;;;;;;;;;4856359;29;20582;-82
2022/03/02 20:39:00;;;;;;;10.57;5.88;;;;;;;;;;4858444;29;20101;-83
2022/03/02 20:41:26;;;;;;;9.43;4.85;;;;;;;;;;4871421;29;20056;-82
2022/03/02 20:43:53;;;;;;;9.80;5.10;;;;;;;;;;4872060;29;20045;-82
2022/03/02 20:46:20;;;;;;;9.35;4.90;;;;;;;;;;4871544;29;20070;-83
2022/03/02 20:48:47;;;;;;;8.43;4.72;;;;;;;;;;4874836;29;20049;-83
2022/03/02 20:51:14;;;;;;;8.60;5.47;;;;;;;;;;4878219;29;20052;-84
2022/03/02 20:53:40;;;;;;;9.45;5.00;;;;;;;;;;4881022;29;21525;-84
2022/03/02 20:56:08;;;;;;;9.90;4.75;;;;;;;;;;4861443;29;20057;-85
2022/03/02 20:58:37;;;;;;;7.82;4.60;;;;;;;;;;4871869;29;20064;-85
2022/03/02 21:01:04;;;;;;;10.85;5.00;;;;;;;;;;4873867;29;20964;-86
2022/03/02 21:03:31;;;;;;;9.85;4.40;;;;;;;;;;4872200;29;20041;-83
2022/03/02 21:05:57;;;;;;;9.63;4.30;;;;;;;;;;4874259;29;20471;-84
2022/03/02 21:08:24;;;;;;;14.90;4.80;;;;;;;;;;4870137;29;20656;-85
2022/03/02 21:10:52;;;;;;;11.80;5.60;;;;;;;;;;4869943;29;20553;-84
2022/03/02 21:13:19;;;;;;;10.98;4.50;;;;;;;;;;4872773;29;20056;-84
2022/03/02 21:15:46;;;;;;;15.55;7.43;;;;;;;;;;4872536;29;20209;-83
2022/03/02 21:18:13;;;;;;;9.88;4.70;;;;;;;;;;4872996;29;20506;-85
2022/03/02 21:20:40;;;;;;;10.88;3.45;;;;;;;;;;4857169;29;20884;-85
2022/03/02 21:23:07;;;;;;;14.00;4.60;;;;;;;;;;4874121;29;20056;-82
2022/03/02 21:25:34;;;;;;;12.98;4.00;;;;;;;;;;4874117;29;20585;-82
2022/03/02 21:28:00;;;;;;;11.57;3.42;;;;;;;;;;4855594;29;20060;-87
2022/03/02 21:30:27;;;;;;;7.00;2.80;;;;;;;;;;4879311;29;20045;-86
2022/03/02 21:32:54;;;;;;;9.63;4.15;;;;;;;;;;4879624;29;20160;-85
2022/03/02 21:35:20;;;;;;;8.43;3.80;;;;;;;;;;4871079;29;20057;-85
2022/03/02 21:37:47;;;;;;;8.95;3.15;;;;;;;;;;4876007;29;20052;-86
2022/03/02 21:40:14;;;;;;;9.95;3.40;;;;;;;;;;4871335;29;20841;-85
2022/03/02 21:42:43;;;;;;;13.07;2.80;;;;;;;;;;4872105;29;20057;-83
2022/03/02 21:45:10;;;;;;;9.35;3.58;;;;;;;;;;4870647;29;20057;-84
2022/03/02 21:47:39;;;;;;;11.60;2.63;;;;;;;;;;4870807;29;20140;-84
2022/03/02 21:50:07;;;;;;;13.40;3.60;;;;;;;;;;4867973;29;20056;-82
2022/03/02 21:52:34;;;;;;;8.57;3.10;;;;;;;;;;4870301;29;20053;-84
2022/03/02 21:55:01;;;;;;;10.23;3.15;;;;;;;;;;4870706;29;20064;-84
2022/03/02 21:57:30;;;;;;;7.50;2.90;;;;;;;;;;4856064;29;20071;-83
2022/03/02 21:59:57;;;;;;;10.18;2.90;;;;;;;;;;4870186;29;20056;-82
2022/03/02 22:02:24;;;;;;;12.32;2.38;;;;;;;;;;4853743;29;20478;-83
2022/03/02 22:04:51;;;;;;;12.52;1.88;;;;;;;;;;4868645;29;20113;-83
2022/03/02 22:07:18;;;;;;;12.20;2.00;;;;;;;;;;4871019;29;20045;-84